Time;durP1;ratioP1;P1;durP2;ratioP2;P2;SDS_P1;SDS_P2;PMS_P1;PMS_P2;Temp;Humidity;BMP_temperature;BMP_pressure;BME280_temperature;BME280_humidity;BME280_pressure;Samples;Min_cycle;Max_cycle;Signal;HPM_P1;HPM_P2
2021/12/14 00:00:45;;;;;;;2.03;1.57;;;;;;;4.92;97.60;97335.56;5080894;28;20218;-71
2021/12/14 00:03:13;;;;;;;3.50;1.83;;;;;;;4.72;97.52;97337.19;5080008;28;20223;-71
2021/12/14 00:05:41;;;;;;;1.03;0.93;;;;;;;4.75;97.44;97350.00;5080692;28;20210;-69
2021/12/14 00:08:12;;;;;;;3.07;1.67;;;;;;;5.00;97.32;97343.66;5080948;28;20231;-69
2021/12/14 00:10:57;;;;;;;2.17;1.47;;;;;;;4.57;97.73;97348.75;5080296;28;20218;-70
2021/12/14 00:13:32;;;;;;;3.93;2.17;;;;;;;4.77;97.76;97346.31;5077147;28;20268;-70
2021/12/14 00:15:59;;;;;;;2.67;1.70;;;;;;;4.57;98.06;97338.31;5080385;28;20253;-71
2021/12/14 00:18:26;;;;;;;1.40;1.07;;;;;;;4.58;98.04;97338.22;5080338;28;20215;-71
2021/12/14 00:20:56;;;;;;;2.10;1.00;;;;;;;4.71;97.72;97343.34;5079551;28;20211;-69
2021/12/14 00:26:12;;;;;;;1.30;1.20;;;;;;;4.47;98.38;97322.53;5079416;28;20249;-69
2021/12/14 00:28:41;;;;;;;1.33;0.93;;;;;;;4.20;99.54;97336.78;5077034;28;20223;-70
2021/12/14 00:31:13;;;;;;;2.60;1.20;;;;;;;4.38;99.06;97335.44;5076831;28;20207;-70
2021/12/14 00:33:41;;;;;;;5.77;1.87;;;;;;;4.38;98.97;97331.03;5076241;28;20318;-70
2021/12/14 00:36:11;;;;;;;1.70;1.57;;;;;;;4.45;99.02;97334.00;5076749;28;20211;-70
2021/12/14 00:38:38;;;;;;;3.90;2.77;;;;;;;4.57;98.13;97347.00;5077147;28;20206;-70
2021/12/14 00:41:09;;;;;;;3.43;1.87;;;;;;;4.84;97.54;97347.53;5076458;28;20202;-69
2021/12/14 00:43:36;;;;;;;2.43;1.97;;;;;;;4.55;97.16;97340.22;5076169;28;20207;-70
2021/12/14 00:46:05;;;;;;;2.33;2.10;;;;;;;4.68;97.29;97340.97;5076767;28;20203;-71
2021/12/14 00:48:31;;;;;;;0.97;0.73;;;;;;;4.21;97.90;97338.41;5076776;28;20238;-68
2021/12/14 00:51:01;;;;;;;2.33;1.30;;;;;;;4.40;97.98;97339.59;5076288;28;20210;-69
2021/12/14 00:53:28;;;;;;;3.17;1.63;;;;;;;4.30;97.86;97336.00;5076011;28;20214;-70
2021/12/14 00:55:58;;;;;;;1.17;1.07;;;;;;;4.54;97.87;97339.38;5076801;28;20225;-70
2021/12/14 00:58:25;;;;;;;1.57;1.23;;;;;;;4.37;97.58;97349.41;5076417;28;20202;-70
2021/12/14 01:00:56;;;;;;;3.63;2.47;;;;;;;4.53;97.77;97349.94;5076540;28;20206;-70
2021/12/14 01:03:27;;;;;;;5.00;2.27;;;;;;;4.70;97.30;97342.53;5079136;28;20210;-71
2021/12/14 01:05:55;;;;;;;1.50;1.03;;;;;;;4.62;97.04;97346.63;5080327;28;20207;-68
2021/12/14 01:08:25;;;;;;;1.30;1.20;;;;;;;4.86;96.88;97343.88;5079839;28;20345;-69
2021/12/14 01:10:55;;;;;;;3.97;1.53;;;;;;;4.68;96.96;97339.19;5080210;28;20214;-72
2021/12/14 01:13:25;;;;;;;4.03;1.03;;;;;;;4.44;98.13;97340.19;5077443;28;20206;-70
2021/12/14 01:16:12;;;;;;;1.67;0.87;;;;;;;4.77;97.26;97342.88;5079488;28;20670;-68
2021/12/14 01:18:47;;;;;;;3.20;0.83;;;;;;;4.55;96.23;97346.25;5079938;28;20275;-71
2021/12/14 01:21:24;;;;;;;1.97;1.73;;;;;;;4.28;97.58;97347.47;5080081;28;20246;-69
2021/12/14 01:24:00;;;;;;;1.27;0.80;;;;;;;4.16;97.23;97352.75;5079250;28;20275;-69
2021/12/14 01:26:29;;;;;;;1.77;1.03;;;;;;;3.94;97.67;97358.66;5080046;28;20207;-71
2021/12/14 01:28:55;;;;;;;1.17;1.03;;;;;;;3.65;97.96;97364.28;5079361;28;20236;-69
2021/12/14 01:31:28;;;;;;;0.50;0.50;;;;;;;3.76;99.40;97357.38;5079495;28;20233;-69
2021/12/14 01:34:04;;;;;;;0.50;0.50;;;;;;;4.11;98.82;97353.09;5079607;28;20207;-71
2021/12/14 01:36:38;;;;;;;0.40;0.40;;;;;;;3.73;98.31;97351.56;5079779;28;20216;-70
2021/12/14 01:39:24;;;;;;;1.17;0.97;;;;;;;4.08;98.37;97350.69;5080074;28;20378;-70
2021/12/14 01:41:55;;;;;;;3.60;1.00;;;;;;;4.24;97.56;97351.25;5081635;28;20237;-69
2021/12/14 01:44:23;;;;;;;0.60;0.60;;;;;;;4.34;97.28;97355.69;5083315;28;20590;-69
2021/12/14 01:46:55;;;;;;;0.87;0.87;;;;;;;4.41;97.52;97348.25;5083541;28;20214;-70
2021/12/14 01:49:26;;;;;;;1.73;1.63;;;;;;;4.58;96.81;97359.09;5083421;28;20233;-69
2021/12/14 01:51:57;;;;;;;3.00;1.40;;;;;;;4.23;97.19;97362.63;5083313;28;20228;-69
2021/12/14 01:54:30;;;;;;;0.30;0.30;;;;;;;4.20;97.62;97356.78;5082586;28;20204;-69
2021/12/14 01:56:57;;;;;;;2.07;0.67;;;;;;;3.94;97.42;97358.66;5084132;28;20552;-69
2021/12/14 01:59:33;;;;;;;0.77;0.77;;;;;;;4.21;97.71;97351.47;5083923;28;20199;-70
2021/12/14 02:02:17;;;;;;;0.50;0.50;;;;;;;4.10;97.41;97364.47;5083034;28;20234;-69
2021/12/14 02:04:48;;;;;;;2.60;0.93;;;;;;;4.18;97.86;97364.75;5083661;28;20757;-70
2021/12/14 02:07:16;;;;;;;1.93;0.73;;;;;;;4.25;97.53;97361.56;5083220;28;20206;-71
2021/12/14 02:09:44;;;;;;;2.67;1.80;;;;;;;4.40;97.39;97355.25;5082902;28;20232;-70
2021/12/14 02:12:15;;;;;;;1.53;0.70;;;;;;;4.46;96.97;97361.78;5080605;28;20220;-69
2021/12/14 02:14:42;;;;;;;2.57;1.30;;;;;;;3.93;97.54;97364.00;5082619;28;20207;-68
2021/12/14 02:17:12;;;;;;;2.40;1.90;;;;;;;3.95;97.81;97352.53;5082256;28;20208;-70
2021/12/14 02:19:39;;;;;;;1.90;1.57;;;;;;;4.10;97.03;97356.66;5082794;28;20286;-69
2021/12/14 02:22:10;;;;;;;3.13;1.60;;;;;;;4.10;96.59;97359.25;5082985;28;20224;-72
2021/12/14 02:24:39;;;;;;;1.37;1.27;;;;;;;3.96;97.67;97363.78;5082435;28;20607;-70
2021/12/14 02:27:07;;;;;;;2.00;1.43;;;;;;;3.79;98.43;97357.19;5081313;28;20208;-69
2021/12/14 02:29:35;;;;;;;1.80;1.33;;;;;;;4.03;98.05;97352.78;5081912;28;21258;-72
2021/12/14 02:32:05;;;;;;;2.67;1.30;;;;;;;4.07;98.02;97354.22;5082955;28;20228;-69
2021/12/14 02:34:38;;;;;;;2.63;1.47;;;;;;;4.04;98.50;97362.28;5081781;28;20207;-71
2021/12/14 02:37:05;;;;;;;2.80;1.40;;;;;;;3.97;97.35;97368.91;5081602;28;20215;-68
2021/12/14 02:39:48;;;;;;;1.43;1.23;;;;;;;4.08;97.56;97357.69;5082310;28;20196;-70
2021/12/14 02:42:19;;;;;;;2.87;1.60;;;;;;;4.22;97.79;97360.97;5081296;28;20849;-69
2021/12/14 02:44:47;;;;;;;2.73;2.07;;;;;;;4.00;98.23;97360.03;5082433;28;20213;-69
2021/12/14 02:47:17;;;;;;;2.50;1.30;;;;;;;4.01;98.38;97354.69;5080631;28;20203;-67
2021/12/14 02:49:45;;;;;;;2.50;1.67;;;;;;;4.13;97.90;97353.81;5078822;28;20341;-68
2021/12/14 02:52:14;;;;;;;2.53;2.10;;;;;;;4.01;98.00;97362.53;5078276;28;20684;-69
2021/12/14 02:54:47;;;;;;;1.97;1.37;;;;;;;4.01;99.03;97359.91;5078822;28;20207;-71
2021/12/14 02:57:16;;;;;;;2.50;2.27;;;;;;;3.84;99.22;97359.44;5078300;28;20200;-68
2021/12/14 02:59:45;;;;;;;1.97;1.27;;;;;;;4.04;98.91;97349.25;5078812;28;20217;-68
2021/12/14 03:02:15;;;;;;;2.50;1.67;;;;;;;4.06;98.41;97350.00;5078414;28;20222;-68
2021/12/14 03:04:45;;;;;;;4.13;2.10;;;;;;;4.05;98.47;97348.31;5078718;28;20552;-69
2021/12/14 03:07:13;;;;;;;3.23;2.10;;;;;;;3.65;98.73;97359.94;5078248;28;20206;-71
2021/12/14 03:09:55;;;;;;;5.27;2.87;;;;;;;3.73;98.72;97355.00;5078462;28;20223;-69
2021/12/14 03:12:28;;;;;;;7.03;1.53;;;;;;;3.87;98.54;97354.84;5075137;28;20749;-67
2021/12/14 03:14:58;;;;;;;1.70;1.60;;;;;;;3.62;98.56;97354.09;5077899;28;20208;-68
2021/12/14 03:17:25;;;;;;;1.33;1.23;;;;;;;3.59;98.16;97350.88;5078197;28;20207;-70
2021/12/14 03:19:54;;;;;;;2.87;2.03;;;;;;;3.24;99.38;97353.31;5078206;28;20207;-67
2021/12/14 03:22:28;;;;;;;2.70;1.73;;;;;;;3.64;99.22;97347.84;5077244;28;20226;-70
2021/12/14 03:24:56;;;;;;;1.77;1.60;;;;;;;3.41;99.86;97349.53;5078196;28;20218;-70
2021/12/14 03:27:22;;;;;;;6.83;2.67;;;;;;;3.52;99.11;97354.84;5078207;28;20237;-70
2021/12/14 03:29:49;;;;;;;1.93;1.00;;;;;;;3.55;98.56;97354.63;5077826;28;20230;-70
2021/12/14 03:32:16;;;;;;;3.20;2.10;;;;;;;3.47;97.97;97356.94;5076822;28;20758;-69
2021/12/14 03:34:42;;;;;;;4.63;1.50;;;;;;;3.35;98.71;97350.81;5078782;28;20284;-68
2021/12/14 03:37:12;;;;;;;1.73;1.33;;;;;;;3.51;99.04;97347.97;5074523;28;20233;-68
2021/12/14 03:39:44;;;;;;;1.83;1.47;;;;;;;3.69;98.70;97343.13;5077435;28;20705;-68
2021/12/14 03:42:15;;;;;;;3.47;2.37;;;;;;;3.75;99.11;97350.50;5077653;28;20634;-70
2021/12/14 03:44:46;;;;;;;3.97;2.30;;;;;;;3.60;100.00;97355.13;5077745;28;20214;-70
2021/12/14 03:47:16;;;;;;;2.60;2.03;;;;;;;3.66;99.43;97345.13;5078786;28;20291;-69
2021/12/14 03:49:47;;;;;;;4.20;2.23;;;;;;;3.22;100.00;97344.78;5079711;28;20219;-69
2021/12/14 03:52:18;;;;;;;0.57;0.57;;;;;;;3.44;100.00;97344.13;5079594;28;20640;-71
2021/12/14 03:54:44;;;;;;;5.23;2.43;;;;;;;3.41;99.89;97344.34;5079288;28;20698;-69
2021/12/14 03:57:13;;;;;;;2.53;1.80;;;;;;;3.37;100.00;97337.69;5080034;28;20217;-69
2021/12/14 03:59:40;;;;;;;1.40;1.30;;;;;;;3.31;100.00;97348.50;5078588;28;20200;-70
2021/12/14 04:02:10;;;;;;;0.80;0.80;;;;;;;3.47;100.00;97343.91;5079842;28;20228;-71
2021/12/14 04:04:45;;;;;;;2.63;1.57;;;;;;;3.59;100.00;97348.25;5079452;28;20200;-71
2021/12/14 04:07:15;;;;;;;1.03;1.00;;;;;;;3.47;100.00;97351.72;5080214;28;20666;-70
2021/12/14 04:09:44;;;;;;;1.90;1.47;;;;;;;3.63;99.59;97350.56;5079585;28;20233;-70
2021/12/14 04:12:16;;;;;;;1.43;1.30;;;;;;;3.25;100.00;97348.97;5076286;28;20224;-71
2021/12/14 04:14:49;;;;;;;3.23;1.20;;;;;;;3.45;100.00;97348.38;5080034;28;20930;-69
2021/12/14 04:17:17;;;;;;;2.43;1.70;;;;;;;3.31;100.00;97356.31;5079287;28;21020;-70
2021/12/14 04:19:44;;;;;;;0.80;0.80;;;;;;;3.31;99.70;97345.91;5080000;28;20684;-69
2021/12/14 04:22:14;;;;;;;2.13;1.67;;;;;;;3.61;99.75;97351.59;5079653;28;20281;-69
2021/12/14 04:24:42;;;;;;;6.83;1.83;;;;;;;3.76;98.97;97346.13;5079750;28;20203;-70
2021/12/14 04:27:11;;;;;;;2.73;1.77;;;;;;;3.60;99.38;97342.09;5079455;28;20203;-69
2021/12/14 04:29:39;;;;;;;1.30;0.83;;;;;;;3.55;99.41;97332.00;5079172;28;20224;-69
2021/12/14 04:32:09;;;;;;;4.00;1.30;;;;;;;3.53;99.92;97325.25;5079095;28;20580;-69
2021/12/14 04:34:36;;;;;;;4.37;2.63;;;;;;;3.17;100.00;97318.22;5078735;28;20551;-69
2021/12/14 04:37:04;;;;;;;3.17;1.80;;;;;;;3.22;100.00;97328.31;5079150;28;20218;-70
2021/12/14 04:39:42;;;;;;;1.57;1.47;;;;;;;3.24;99.74;97327.28;5078643;28;20204;-72
2021/12/14 04:53:34;;;;;;;4.13;2.13;;;;;;;3.33;100.00;97354.47;5075481;28;20381;-68
2021/12/14 04:56:02;;;;;;;5.57;2.50;;;;;;;3.07;100.00;97351.03;5076980;28;20204;-68
2021/12/14 04:58:32;;;;;;;0.87;0.87;;;;;;;3.21;100.00;97358.75;5077216;28;20200;-69
2021/12/14 05:01:01;;;;;;;7.37;2.17;;;;;;;3.28;100.00;97354.75;5076064;28;20195;-69
2021/12/14 05:03:33;;;;;;;2.00;1.73;;;;;;;3.45;100.00;97351.84;5075696;28;20203;-69
2021/12/14 05:06:13;;;;;;;2.20;1.53;;;;;;;3.15;100.00;97345.31;5076660;28;20200;-70
2021/12/14 05:11:25;;;;;;;1.23;1.13;;;;;;;3.38;100.00;97358.41;5078907;28;20239;-69
2021/12/14 05:13:58;;;;;;;1.63;1.53;;;;;;;3.51;100.00;97350.56;5076566;28;20212;-70
2021/12/14 05:16:28;;;;;;;4.67;1.50;;;;;;;3.65;100.00;97346.91;5080762;28;20199;-70
2021/12/14 05:18:59;;;;;;;2.00;1.47;;;;;;;3.58;100.00;97352.66;5080822;28;20573;-70
2021/12/14 05:21:28;;;;;;;4.87;2.80;;;;;;;3.62;100.00;97353.28;5080559;28;20225;-70
2021/12/14 05:23:55;;;;;;;2.23;1.83;;;;;;;3.48;99.41;97354.22;5079563;28;20204;-70
2021/12/14 05:26:22;;;;;;;3.60;2.33;;;;;;;3.52;99.00;97349.63;5080539;28;20212;-68
2021/12/14 05:28:49;;;;;;;5.70;1.93;;;;;;;3.62;99.40;97334.06;5080616;28;20700;-70
2021/12/14 05:31:16;;;;;;;2.33;2.13;;;;;;;3.76;99.01;97331.31;5080114;28;20237;-69
2021/12/14 05:33:44;;;;;;;2.83;2.40;;;;;;;3.75;99.36;97334.03;5079677;28;20203;-69
2021/12/14 05:36:16;;;;;;;10.07;2.83;;;;;;;3.70;99.16;97320.50;5080125;28;20213;-70
2021/12/14 05:38:53;;;;;;;3.73;2.03;;;;;;;3.79;99.12;97310.25;5080315;28;21137;-70
2021/12/14 05:44:05;;;;;;;5.23;3.27;;;;;;;3.53;99.88;97301.81;5055949;28;20207;-70
2021/12/14 05:46:33;;;;;;;6.47;2.23;;;;;;;3.35;99.72;97303.09;5080127;28;20314;-70
2021/12/14 05:49:04;;;;;;;10.53;3.37;;;;;;;3.63;100.00;97304.47;5079799;28;20202;-69
2021/12/14 05:51:32;;;;;;;2.27;1.57;;;;;;;3.63;99.99;97298.44;5080410;28;20228;-69
2021/12/14 05:53:59;;;;;;;3.90;2.90;;;;;;;3.73;99.19;97296.84;5078881;28;20257;-71
2021/12/14 05:56:28;;;;;;;7.67;2.83;;;;;;;3.64;99.50;97294.88;5079920;28;20244;-70
2021/12/14 05:58:56;;;;;;;3.53;1.90;;;;;;;3.66;99.08;97299.03;5080303;28;20196;-69
2021/12/14 06:01:28;;;;;;;5.03;2.47;;;;;;;3.23;100.00;97296.97;5082330;28;20216;-71
2021/12/14 06:03:57;;;;;;;9.93;2.83;;;;;;;3.26;100.00;97288.09;5081972;28;20207;-69
2021/12/14 06:06:29;;;;;;;3.43;2.13;;;;;;;3.18;100.00;97285.19;5082833;28;20196;-71
2021/12/14 06:09:03;;;;;;;1.97;1.47;;;;;;;3.22;100.00;97286.66;5084368;28;20204;-71
2021/12/14 06:11:29;;;;;;;5.50;3.13;;;;;;;3.07;100.00;97293.75;5084557;28;20237;-70
2021/12/14 06:13:57;;;;;;;1.30;1.20;;;;;;;3.16;100.00;97285.31;5081001;28;20210;-71
2021/12/14 06:16:26;;;;;;;11.30;1.70;;;;;;;3.23;100.00;97283.09;5084349;28;20219;-70
2021/12/14 06:18:54;;;;;;;4.27;2.40;;;;;;;3.09;100.00;97286.69;5084385;28;20255;-70
2021/12/14 06:21:31;;;;;;;1.07;1.00;;;;;;;3.51;100.00;97295.84;5083542;28;20223;-71
2021/12/14 06:24:03;;;;;;;3.00;1.43;;;;;;;3.22;100.00;97300.50;5082693;28;20207;-69
2021/12/14 06:26:34;;;;;;;3.17;1.50;;;;;;;3.45;100.00;97293.69;5084293;28;20200;-69
2021/12/14 06:29:05;;;;;;;1.30;1.20;;;;;;;3.15;100.00;97306.25;5082569;28;20212;-73
2021/12/14 06:31:31;;;;;;;2.90;1.80;;;;;;;2.88;100.00;97302.09;5082975;28;20231;-69
2021/12/14 06:34:11;;;;;;;3.10;2.37;;;;;;;3.33;100.00;97307.56;5083209;28;20218;-69
2021/12/14 06:37:15;;;;;;;4.50;2.53;;;;;;;3.42;100.00;97319.97;5082787;28;20215;-70
2021/12/14 06:39:58;;;;;;;2.77;2.53;;;;;;;3.59;100.00;97310.03;5083616;28;20284;-69
2021/12/14 06:42:25;;;;;;;11.17;3.47;;;;;;;3.16;100.00;97315.75;5082882;28;20313;-70
2021/12/14 06:44:51;;;;;;;5.10;2.50;;;;;;;3.42;99.73;97319.97;5083038;28;20203;-71
2021/12/14 06:47:18;;;;;;;1.33;1.00;;;;;;;2.95;100.00;97329.41;5082245;28;20215;-69
2021/12/14 06:49:44;;;;;;;6.70;2.97;;;;;;;3.11;100.00;97328.25;5082810;28;20232;-69
2021/12/14 06:52:15;;;;;;;6.10;2.83;;;;;;;3.37;100.00;97314.22;5080935;28;20602;-72
2021/12/14 06:54:44;;;;;;;9.97;3.00;;;;;;;3.35;100.00;97321.34;5082990;28;20208;-70
2021/12/14 06:57:11;;;;;;;1.70;1.60;;;;;;;2.99;100.00;97330.84;5081631;28;20204;-70
2021/12/14 06:59:38;;;;;;;4.47;2.60;;;;;;;3.14;100.00;97328.03;5081583;28;20204;-71
2021/12/14 07:02:09;;;;;;;3.80;2.37;;;;;;;3.45;100.00;97310.16;5082316;28;20228;-70
2021/12/14 07:04:37;;;;;;;0.90;0.90;;;;;;;3.45;100.00;97317.13;5082715;28;20649;-70
2021/12/14 07:07:08;;;;;;;4.00;2.10;;;;;;;3.66;100.00;97309.44;5082440;28;20235;-70
2021/12/14 07:09:39;;;;;;;1.90;1.43;;;;;;;3.35;100.00;97321.34;5082707;28;20208;-69
2021/12/14 07:12:09;;;;;;;3.03;2.00;;;;;;;3.47;100.00;97326.50;5079715;28;20231;-72
2021/12/14 07:14:42;;;;;;;3.33;2.13;;;;;;;3.79;99.43;97307.66;5083156;28;21097;-71
2021/12/14 07:17:12;;;;;;;1.57;0.83;;;;;;;3.55;100.00;97315.53;5081991;28;20208;-72
2021/12/14 07:19:42;;;;;;;3.50;1.60;;;;;;;3.67;99.29;97313.72;5081851;28;20291;-71
2021/12/14 07:22:17;;;;;;;2.83;1.77;;;;;;;3.46;100.00;97317.00;5082076;28;20223;-70
2021/12/14 07:24:45;;;;;;;2.50;2.30;;;;;;;3.57;100.00;97309.28;5082999;28;20206;-71
2021/12/14 07:27:22;;;;;;;6.83;3.07;;;;;;;3.40;100.00;97321.81;5081706;28;20213;-70
2021/12/14 07:29:49;;;;;;;4.37;2.30;;;;;;;3.16;100.00;97320.94;5082975;28;20204;-70
2021/12/14 07:32:37;;;;;;;1.93;1.83;;;;;;;3.31;100.00;97320.72;5082409;28;20217;-70
2021/12/14 07:35:18;;;;;;;3.03;1.73;;;;;;;3.48;100.00;97306.50;5082711;28;20217;-69
2021/12/14 07:37:45;;;;;;;0.97;0.97;;;;;;;3.08;100.00;97321.47;5081642;28;20218;-71
2021/12/14 07:40:14;;;;;;;1.73;1.57;;;;;;;3.30;100.00;97326.84;5080216;28;20202;-72
2021/12/14 07:42:42;;;;;;;3.83;2.10;;;;;;;3.07;100.00;97326.78;5079707;28;20766;-69
2021/12/14 07:45:09;;;;;;;4.43;1.83;;;;;;;3.29;100.00;97319.97;5080183;28;20204;-72
2021/12/14 07:47:36;;;;;;;3.57;1.87;;;;;;;3.35;99.77;97314.34;5080034;28;20200;-71
2021/12/14 07:50:03;;;;;;;2.43;1.70;;;;;;;3.32;100.00;97318.94;5078015;28;20267;-69
2021/12/14 07:52:34;;;;;;;3.10;2.80;;;;;;;3.58;99.85;97317.91;5079641;28;20227;-69
2021/12/14 07:55:04;;;;;;;3.70;2.10;;;;;;;3.64;99.32;97318.34;5077621;28;20207;-69
2021/12/14 07:57:35;;;;;;;3.50;1.63;;;;;;;3.39;100.00;97314.97;5077509;28;20881;-69
2021/12/14 08:00:08;;;;;;;6.00;3.03;;;;;;;3.86;99.27;97310.66;5077680;28;20199;-69
2021/12/14 08:02:38;;;;;;;3.07;2.13;;;;;;;3.75;99.35;97307.97;5076485;28;20244;-70
2021/12/14 08:05:17;;;;;;;4.00;1.93;;;;;;;3.65;99.21;97312.16;5077749;28;20203;-70
2021/12/14 08:07:45;;;;;;;1.63;1.20;;;;;;;3.63;99.59;97309.69;5077415;28;20210;-70
2021/12/14 08:10:16;;;;;;;10.03;1.77;;;;;;;4.00;98.80;97293.06;5077071;28;20219;-69
2021/12/14 08:12:46;;;;;;;2.37;1.43;;;;;;;3.41;100.00;97313.94;5072783;28;20246;-69
2021/12/14 08:15:21;;;;;;;6.50;1.97;;;;;;;3.82;100.00;97309.22;5078053;28;20666;-69
2021/12/14 08:18:00;;;;;;;1.33;1.30;;;;;;;3.89;99.18;97300.00;5077240;28;20209;-70
2021/12/14 08:20:26;;;;;;;3.57;2.80;;;;;;;3.83;97.74;97295.22;5076870;28;20206;-69
2021/12/14 08:22:56;;;;;;;4.87;3.20;;;;;;;3.62;99.13;97297.56;5076566;28;20648;-69
2021/12/14 08:25:27;;;;;;;10.30;2.83;;;;;;;3.94;98.90;97306.53;5077165;28;20210;-68
2021/12/14 08:28:06;;;;;;;5.40;3.00;;;;;;;4.29;97.65;97304.78;5076550;28;20203;-71
2021/12/14 08:30:34;;;;;;;3.63;2.83;;;;;;;3.76;98.81;97309.63;5076572;28;20311;-69
2021/12/14 08:33:02;;;;;;;8.30;3.90;;;;;;;3.91;98.12;97303.31;5076018;28;21352;-71
2021/12/14 08:35:29;;;;;;;6.07;4.03;;;;;;;4.02;97.62;97283.34;5076903;28;20212;-70
2021/12/14 08:38:00;;;;;;;2.00;1.63;;;;;;;3.57;99.44;97275.41;5076935;28;20562;-70
2021/12/14 08:40:31;;;;;;;14.57;2.20;;;;;;;3.99;98.27;97261.88;5077171;28;20200;-70
2021/12/14 08:43:06;;;;;;;2.10;1.33;;;;;;;3.81;99.09;97255.41;5075871;28;20231;-69
2021/12/14 08:45:36;;;;;;;9.83;3.60;;;;;;;4.05;98.94;97262.25;5076590;28;20292;-69
2021/12/14 08:48:10;;;;;;;5.57;3.00;;;;;;;4.03;99.45;97277.16;5076926;28;20203;-69
2021/12/14 08:50:41;;;;;;;1.50;1.40;;;;;;;3.95;98.83;97289.13;5076641;28;20225;-69
2021/12/14 08:53:09;;;;;;;5.40;2.60;;;;;;;3.70;99.76;97329.16;5076273;28;20227;-69
2021/12/14 08:55:37;;;;;;;2.30;2.10;;;;;;;3.70;100.00;97339.59;5076914;28;20210;-67
2021/12/14 08:58:06;;;;;;;3.70;2.60;;;;;;;3.96;100.00;97328.13;5076482;28;20215;-67
2021/12/14 09:00:37;;;;;;;4.73;2.80;;;;;;;4.12;99.19;97309.56;5076596;28;20204;-69
2021/12/14 09:03:05;;;;;;;5.67;3.80;;;;;;;4.57;97.25;97310.44;5075832;28;20861;-68
2021/12/14 09:05:37;;;;;;;4.07;2.60;;;;;;;4.39;97.85;97316.19;5076700;28;20215;-67
2021/12/14 09:08:04;;;;;;;5.40;3.17;;;;;;;4.28;97.25;97334.44;5076496;28;20209;-69
2021/12/14 09:10:33;;;;;;;5.03;2.07;;;;;;;4.22;97.86;97336.66;5076609;28;20219;-68
2021/12/14 09:13:04;;;;;;;7.63;2.43;;;;;;;4.36;97.83;97334.69;5072402;28;20667;-69
2021/12/14 09:15:35;;;;;;;2.07;1.50;;;;;;;4.81;95.97;97332.09;5076723;28;20207;-69
2021/12/14 09:18:02;;;;;;;4.33;2.87;;;;;;;4.64;95.30;97318.66;5076703;28;20208;-69
2021/12/14 09:20:32;;;;;;;5.37;2.97;;;;;;;4.50;97.00;97326.69;5076188;28;20292;-69
2021/12/14 09:23:04;;;;;;;6.13;2.87;;;;;;;4.75;95.44;97318.66;5075147;28;20601;-69
2021/12/14 09:25:31;;;;;;;1.97;1.43;;;;;;;4.22;96.55;97314.81;5077059;28;20207;-70
2021/12/14 09:28:01;;;;;;;1.90;1.63;;;;;;;4.48;96.83;97321.59;5076362;28;20207;-69
2021/12/14 09:30:33;;;;;;;6.10;3.53;;;;;;;4.82;96.08;97319.88;5076451;28;20200;-69
2021/12/14 09:33:00;;;;;;;2.33;1.13;;;;;;;4.31;95.60;97332.41;5075699;28;20234;-67
2021/12/14 09:35:33;;;;;;;3.50;1.40;;;;;;;4.43;96.98;97333.28;5076942;28;20225;-69
2021/12/14 09:38:00;;;;;;;4.00;2.27;;;;;;;4.39;96.20;97337.06;5075642;28;20211;-68
2021/12/14 09:40:32;;;;;;;2.27;1.70;;;;;;;4.72;96.16;97335.38;5076624;28;20211;-69
2021/12/14 09:42:59;;;;;;;3.17;2.33;;;;;;;4.51;97.36;97323.13;5075719;28;20239;-69
2021/12/14 09:45:30;;;;;;;6.07;2.77;;;;;;;4.53;96.60;97327.28;5076282;28;20221;-69
2021/12/14 09:47:57;;;;;;;9.50;2.77;;;;;;;4.64;96.11;97332.53;5076469;28;20213;-67
2021/12/14 09:50:29;;;;;;;5.57;2.73;;;;;;;4.87;95.74;97327.25;5076188;28;20214;-69
2021/12/14 09:52:57;;;;;;;17.23;4.30;;;;;;;5.01;94.55;97321.78;5075118;28;20234;-68
2021/12/14 09:55:30;;;;;;;6.07;3.37;;;;;;;4.91;95.48;97310.41;5076260;28;20211;-68
2021/12/14 09:58:01;;;;;;;9.47;3.57;;;;;;;5.38;97.93;97307.56;5077653;28;20210;-68
2021/12/14 10:00:32;;;;;;;9.37;3.20;;;;;;;5.47;93.55;97299.00;5079442;28;20202;-70
2021/12/14 10:03:02;;;;;;;3.17;1.40;;;;;;;6.11;96.37;97296.41;5079548;28;20224;-69
2021/12/14 10:05:42;;;;;;;5.53;2.53;;;;;;;6.10;96.29;97277.22;5080406;28;20452;-71
2021/12/14 10:08:15;;;;;;;15.07;6.13;;;;;;;5.68;92.16;97276.41;5078241;28;20463;-69
2021/12/14 10:10:44;;;;;;;13.53;5.77;;;;;;;5.72;91.51;97283.03;5079434;28;20277;-69
2021/12/14 10:13:11;;;;;;;6.07;3.60;;;;;;;4.95;94.05;97277.03;5076815;28;21132;-69
2021/12/14 10:15:40;;;;;;;5.87;2.43;;;;;;;5.38;92.70;97293.66;5079499;28;20207;-69
2021/12/14 10:18:12;;;;;;;4.53;3.10;;;;;;;5.29;93.46;97278.69;5079636;28;20228;-69
2021/12/14 10:20:42;;;;;;;5.57;3.13;;;;;;;5.35;93.84;97279.06;5079959;28;21235;-69
2021/12/14 10:23:10;;;;;;;3.73;3.00;;;;;;;5.49;92.24;97268.34;5078662;28;20223;-69
2021/12/14 10:25:36;;;;;;;10.23;4.47;;;;;;;5.44;92.52;97257.41;5079609;28;20207;-69
2021/12/14 10:28:04;;;;;;;2.33;2.13;;;;;;;5.32;93.49;97263.63;5078878;28;20264;-69
2021/12/14 10:30:36;;;;;;;4.50;2.53;;;;;;;5.53;94.30;97269.75;5078536;28;20207;-69
2021/12/14 10:33:03;;;;;;;1.40;1.30;;;;;;;4.85;94.76;97289.16;5077884;28;20269;-69
2021/12/14 10:35:38;;;;;;;1.57;1.37;;;;;;;5.08;94.94;97294.25;5079617;28;20211;-69
2021/12/14 10:38:22;;;;;;;10.17;3.17;;;;;;;5.04;95.33;97295.47;5079303;28;20306;-69
2021/12/14 10:43:40;;;;;;;5.17;2.50;;;;;;;5.28;94.35;97279.66;5078441;28;20621;-69
2021/12/14 10:46:09;;;;;;;5.93;3.17;;;;;;;5.43;94.71;97277.50;5079130;28;20210;-69
2021/12/14 10:48:40;;;;;;;4.80;2.97;;;;;;;5.64;93.07;97282.81;5078454;28;20300;-69
2021/12/14 10:51:11;;;;;;;2.73;1.60;;;;;;;6.22;91.82;97276.25;5078369;28;20238;-69
2021/12/14 10:53:41;;;;;;;0.90;0.90;;;;;;;5.77;91.33;97281.75;5078319;28;20298;-69
2021/12/14 10:56:13;;;;;;;3.03;2.40;;;;;;;5.98;91.62;97274.78;5078618;28;20683;-70
2021/12/14 10:58:41;;;;;;;8.23;4.10;;;;;;;5.98;91.94;97273.97;5079023;28;20204;-69
2021/12/14 11:01:11;;;;;;;3.60;1.73;;;;;;;5.87;92.85;97281.81;5078438;28;20684;-69
2021/12/14 11:03:44;;;;;;;2.83;1.90;;;;;;;5.81;92.77;97277.09;5077539;28;20204;-69
2021/12/14 11:06:15;;;;;;;3.93;2.57;;;;;;;5.76;92.33;97279.25;5078566;28;20204;-66
2021/12/14 11:08:49;;;;;;;3.77;2.10;;;;;;;5.64;93.39;97262.72;5078406;28;20208;-69
2021/12/14 11:11:20;;;;;;;4.33;2.93;;;;;;;5.98;92.49;97263.50;5077869;28;20598;-69
2021/12/14 11:13:53;;;;;;;6.80;4.03;;;;;;;5.74;92.86;97257.56;5075429;28;20226;-69
2021/12/14 11:16:33;;;;;;;6.33;3.20;;;;;;;6.00;92.28;97251.94;5078242;28;20211;-70
2021/12/14 11:19:03;;;;;;;4.53;1.80;;;;;;;6.08;94.88;97252.16;5077790;28;20233;-69
2021/12/14 11:21:31;;;;;;;3.90;2.10;;;;;;;5.94;93.05;97252.44;5078248;28;20216;-69
2021/12/14 11:23:58;;;;;;;2.53;2.13;;;;;;;5.61;93.17;97249.06;5077539;28;20221;-68
2021/12/14 11:26:29;;;;;;;7.10;2.97;;;;;;;5.53;94.92;97254.06;5077902;28;20670;-68
2021/12/14 11:28:58;;;;;;;5.70;2.67;;;;;;;5.55;95.02;97249.56;5078041;28;20222;-69
2021/12/14 11:31:28;;;;;;;10.30;3.47;;;;;;;5.65;94.92;97259.16;5078036;28;20256;-70
2021/12/14 11:33:57;;;;;;;3.93;2.50;;;;;;;5.60;95.63;97263.06;5077226;28;20211;-69
2021/12/14 11:36:31;;;;;;;2.73;2.50;;;;;;;5.70;94.80;97264.00;5077576;28;20572;-71
2021/12/14 11:39:06;;;;;;;3.43;2.00;;;;;;;5.97;94.47;97270.53;5077802;28;20214;-68
2021/12/14 11:41:39;;;;;;;6.83;3.60;;;;;;;5.81;93.77;97272.69;5077658;28;20219;-70
2021/12/14 11:44:12;;;;;;;3.80;2.93;;;;;;;5.81;93.60;97274.50;5076777;28;20207;-71
2021/12/14 11:46:53;;;;;;;12.07;4.37;;;;;;;5.79;94.29;97281.63;5079205;28;20210;-68
2021/12/14 11:49:20;;;;;;;12.00;2.37;;;;;;;5.55;95.04;97280.94;5077610;28;20218;-68
2021/12/14 11:51:48;;;;;;;3.13;2.03;;;;;;;5.64;94.54;97275.81;5077650;28;20230;-69
2021/12/14 11:54:19;;;;;;;9.27;2.57;;;;;;;6.32;92.75;97271.09;5076705;28;20612;-70
2021/12/14 11:56:46;;;;;;;9.73;3.20;;;;;;;5.85;93.87;97270.66;5077298;28;20211;-70
2021/12/14 11:59:15;;;;;;;3.63;2.07;;;;;;;5.87;94.32;97266.13;5077295;28;20551;-69
2021/12/14 12:01:46;;;;;;;6.80;1.67;;;;;;;6.20;93.84;97266.88;5077347;28;20228;-70
2021/12/14 12:04:15;;;;;;;4.87;2.43;;;;;;;6.20;93.04;97262.44;5076344;28;20235;-69
2021/12/14 12:06:47;;;;;;;6.47;3.47;;;;;;;6.17;93.83;97265.31;5077444;28;20211;-71
2021/12/14 12:09:31;;;;;;;4.17;2.33;;;;;;;6.16;94.23;97247.97;5077214;28;20207;-68
2021/12/14 12:12:06;;;;;;;2.73;1.80;;;;;;;6.00;94.54;97245.91;5074734;28;20234;-71
2021/12/14 12:14:36;;;;;;;6.57;2.47;;;;;;;5.96;94.41;97247.94;5076918;28;20202;-69
2021/12/14 12:17:12;;;;;;;8.20;2.30;;;;;;;6.22;93.34;97250.09;5077416;28;20203;-70